Time;durP1;ratioP1;P1;durP2;ratioP2;P2;SDS_P1;SDS_P2;PMS_P1;PMS_P2;Temp;Humidity;BMP_temperature;BMP_pressure;BME280_temperature;BME280_humidity;BME280_pressure;Samples;Min_cycle;Max_cycle;Signal;HPM_P1;HPM_P2
2023/10/29 00:03:14;;;;;;;7.22;3.65;;;;;;;;;;10316963;28;20510;-78
2023/10/29 00:08:14;;;;;;;7.75;3.55;;;;;;;;;;10284839;28;20031;-72
2023/10/29 00:13:15;;;;;;;9.25;3.13;;;;;;;;;;10324095;28;20065;-78
2023/10/29 00:18:17;;;;;;;8.55;3.70;;;;;;;;;;10325091;28;20030;-74
2023/10/29 00:23:17;;;;;;;11.75;4.05;;;;;;;;;;10323451;28;20058;-77
2023/10/29 00:28:18;;;;;;;9.60;3.03;;;;;;;;;;10324621;28;20473;-78
2023/10/29 00:33:18;;;;;;;6.72;2.95;;;;;;;;;;10323071;28;20519;-73
2023/10/29 00:38:18;;;;;;;13.33;3.53;;;;;;;;;;10307014;28;20561;-77
2023/10/29 00:43:19;;;;;;;10.95;3.55;;;;;;;;;;10308569;28;20266;-73
2023/10/29 00:48:19;;;;;;;9.03;3.70;;;;;;;;;;10323392;28;20037;-74
2023/10/29 00:53:20;;;;;;;6.93;3.67;;;;;;;;;;10321989;28;20048;-74
2023/10/29 00:58:22;;;;;;;9.20;2.75;;;;;;;;;;10322592;28;20014;-78
2023/10/29 01:03:22;;;;;;;4.78;2.08;;;;;;;;;;10305316;28;20031;-76
2023/10/29 01:08:24;;;;;;;6.60;1.88;;;;;;;;;;10322472;28;20030;-76
2023/10/29 01:13:25;;;;;;;5.88;2.38;;;;;;;;;;10321873;28;20445;-74
2023/10/29 01:18:25;;;;;;;6.18;2.47;;;;;;;;;;10321250;28;20144;-75
2023/10/29 01:23:26;;;;;;;7.30;1.83;;;;;;;;;;10321042;28;20050;-74
2023/10/29 01:28:27;;;;;;;9.93;2.38;;;;;;;;;;10323128;28;20062;-73
2023/10/29 01:33:27;;;;;;;9.15;2.72;;;;;;;;;;10304712;28;20034;-76
2023/10/29 01:38:28;;;;;;;6.75;1.98;;;;;;;;;;10320841;28;20027;-77
2023/10/29 01:43:28;;;;;;;6.45;2.53;;;;;;;;;;10321795;28;20058;-80
2023/10/29 01:48:28;;;;;;;4.78;2.13;;;;;;;;;;10282385;28;20031;-77
2023/10/29 01:53:29;;;;;;;4.82;1.88;;;;;;;;;;10320494;28;20030;-76
2023/10/29 01:58:29;;;;;;;5.63;1.98;;;;;;;;;;10321297;28;20127;-75
2023/10/29 02:03:30;;;;;;;21.80;2.83;;;;;;;;;;10321782;28;20026;-73
2023/10/29 02:08:31;;;;;;;11.53;3.10;;;;;;;;;;10321038;28;20027;-78
2023/10/29 02:13:32;;;;;;;9.10;2.90;;;;;;;;;;10321013;28;20312;-77
2023/10/29 02:18:32;;;;;;;5.10;2.25;;;;;;;;;;10322460;28;20034;-77
2023/10/29 02:23:34;;;;;;;4.53;1.80;;;;;;;;;;10322167;28;20050;-77
2023/10/29 02:28:34;;;;;;;4.70;1.77;;;;;;;;;;10320519;28;20026;-79
2023/10/29 02:33:34;;;;;;;4.47;2.17;;;;;;;;;;10325383;28;20034;-79
2023/10/29 02:38:34;;;;;;;6.43;1.90;;;;;;;;;;10310643;28;20452;-72
2023/10/29 02:43:38;;;;;;;5.40;2.60;;;;;;;;;;10300270;28;20608;-75
2023/10/29 02:48:38;;;;;;;3.38;2.25;;;;;;;;;;10327957;28;20053;-73
2023/10/29 02:53:39;;;;;;;6.97;2.13;;;;;;;;;;10310808;28;20026;-74
2023/10/29 02:58:39;;;;;;;4.95;2.40;;;;;;;;;;10339254;28;20569;-75
2023/10/29 03:03:39;;;;;;;7.93;2.58;;;;;;;;;;10308400;28;20066;-77
2023/10/29 03:08:39;;;;;;;3.97;2.45;;;;;;;;;;10313365;28;20030;-73
2023/10/29 03:13:40;;;;;;;6.30;2.25;;;;;;;;;;10327697;28;20464;-76
2023/10/29 03:18:40;;;;;;;6.10;1.92;;;;;;;;;;10327585;28;20031;-75
2023/10/29 03:23:40;;;;;;;5.93;2.63;;;;;;;;;;10325899;28;20069;-79
2023/10/29 03:28:42;;;;;;;6.07;2.67;;;;;;;;;;10326789;28;20042;-76
2023/10/29 03:33:42;;;;;;;11.80;3.35;;;;;;;;;;10327775;28;20116;-78
2023/10/29 03:38:43;;;;;;;5.50;3.05;;;;;;;;;;10309915;28;20032;-73
2023/10/29 03:43:43;;;;;;;10.97;3.00;;;;;;;;;;10325168;28;20030;-79
2023/10/29 03:48:45;;;;;;;7.63;2.50;;;;;;;;;;10325797;28;20037;-75
2023/10/29 03:53:45;;;;;;;6.82;2.80;;;;;;;;;;10325358;28;20477;-78
2023/10/29 03:58:46;;;;;;;11.25;3.03;;;;;;;;;;10326695;28;20034;-78
2023/10/29 04:03:47;;;;;;;6.60;2.85;;;;;;;;;;10347094;28;20042;-78
2023/10/29 04:08:48;;;;;;;10.20;2.72;;;;;;;;;;10342275;28;20022;-76
2023/10/29 04:13:48;;;;;;;10.15;3.33;;;;;;;;;;10333890;28;20059;-77
2023/10/29 04:18:50;;;;;;;13.38;2.95;;;;;;;;;;10341925;28;20030;-76
2023/10/29 04:23:50;;;;;;;6.35;2.92;;;;;;;;;;10324965;28;20572;-77
2023/10/29 04:28:52;;;;;;;5.60;2.67;;;;;;;;;;10323428;28;20038;-82
2023/10/29 04:33:54;;;;;;;4.88;2.53;;;;;;;;;;10320814;28;20049;-77
2023/10/29 04:38:55;;;;;;;7.97;2.58;;;;;;;;;;10322834;28;20022;-76
2023/10/29 04:43:55;;;;;;;6.43;2.78;;;;;;;;;;10323875;28;20030;-81
2023/10/29 04:48:55;;;;;;;6.63;2.95;;;;;;;;;;10324587;28;20026;-77
2023/10/29 04:53:55;;;;;;;3.65;2.22;;;;;;;;;;10326241;28;20561;-80
2023/10/29 04:58:56;;;;;;;8.63;2.50;;;;;;;;;;10326323;28;20042;-77
2023/10/29 05:03:56;;;;;;;11.50;2.30;;;;;;;;;;10322875;28;20026;-80
2023/10/29 05:08:56;;;;;;;3.60;2.47;;;;;;;;;;10322171;28;20036;-82
2023/10/29 05:13:58;;;;;;;7.35;2.72;;;;;;;;;;10324572;28;20034;-76
2023/10/29 05:18:59;;;;;;;9.45;2.83;;;;;;;;;;10323298;28;20030;-81
2023/10/29 05:24:00;;;;;;;7.22;2.60;;;;;;;;;;10323501;28;20479;-77
2023/10/29 05:29:00;;;;;;;7.22;3.22;;;;;;;;;;10305758;28;20092;-78
2023/10/29 05:34:01;;;;;;;8.65;2.95;;;;;;;;;;10321789;28;20097;-78
2023/10/29 05:39:05;;;;;;;12.75;3.45;;;;;;;;;;10319098;28;20476;-77
2023/10/29 05:44:05;;;;;;;7.00;2.33;;;;;;;;;;10319026;28;20113;-78
2023/10/29 05:49:05;;;;;;;8.47;3.27;;;;;;;;;;10318843;28;20034;-78
2023/10/29 05:54:05;;;;;;;7.32;3.03;;;;;;;;;;10321684;28;20425;-79
2023/10/29 05:59:07;;;;;;;6.20;3.58;;;;;;;;;;10323415;28;20042;-81
2023/10/29 06:04:07;;;;;;;11.32;3.95;;;;;;;;;;10321347;28;20030;-77
2023/10/29 06:09:07;;;;;;;6.80;3.80;;;;;;;;;;10320761;28;20439;-77
2023/10/29 06:14:08;;;;;;;9.65;3.80;;;;;;;;;;10317998;28;20034;-73
2023/10/29 06:19:09;;;;;;;10.52;3.92;;;;;;;;;;10318951;28;20030;-74
2023/10/29 06:24:09;;;;;;;14.05;4.65;;;;;;;;;;10317445;28;20073;-75
2023/10/29 06:29:09;;;;;;;10.55;3.97;;;;;;;;;;10317478;28;20511;-77
2023/10/29 06:34:10;;;;;;;9.75;4.75;;;;;;;;;;10317190;28;20034;-74
2023/10/29 06:39:10;;;;;;;11.25;4.53;;;;;;;;;;10316549;28;20033;-77
2023/10/29 06:44:10;;;;;;;10.77;4.15;;;;;;;;;;10313244;28;20027;-74
2023/10/29 06:49:11;;;;;;;5.00;3.38;;;;;;;;;;10316091;28;20221;-76
2023/10/29 06:54:12;;;;;;;9.25;2.53;;;;;;;;;;10317857;28;20532;-75
2023/10/29 06:59:13;;;;;;;13.75;3.13;;;;;;;;;;10316586;28;20027;-74
2023/10/29 07:04:14;;;;;;;11.65;3.28;;;;;;;;;;10316974;28;20033;-74
2023/10/29 07:09:16;;;;;;;5.80;2.58;;;;;;;;;;10310460;28;20034;-78
2023/10/29 07:14:17;;;;;;;6.65;2.85;;;;;;;;;;10318936;28;20064;-74
2023/10/29 07:19:17;;;;;;;4.80;2.83;;;;;;;;;;10323004;28;20110;-75
2023/10/29 07:24:17;;;;;;;10.07;3.13;;;;;;;;;;10326051;28;20061;-75
2023/10/29 07:29:17;;;;;;;14.60;4.07;;;;;;;;;;10301018;28;20158;-73
2023/10/29 07:34:18;;;;;;;9.02;3.65;;;;;;;;;;10304900;28;20030;-77
2023/10/29 07:39:18;;;;;;;6.53;4.03;;;;;;;;;;10326119;28;20027;-75
2023/10/29 07:44:18;;;;;;;11.02;4.05;;;;;;;;;;10326590;28;20041;-74
2023/10/29 07:49:18;;;;;;;11.63;4.45;;;;;;;;;;10325062;28;20504;-74
2023/10/29 07:54:19;;;;;;;12.30;3.73;;;;;;;;;;10324983;28;20022;-77
2023/10/29 07:59:19;;;;;;;10.87;3.17;;;;;;;;;;10324763;28;20033;-75
2023/10/29 08:04:19;;;;;;;9.57;3.30;;;;;;;;;;10325072;28;20030;-74
2023/10/29 08:09:19;;;;;;;3.67;1.90;;;;;;;;;;10325455;28;20030;-74
2023/10/29 08:14:20;;;;;;;9.80;2.55;;;;;;;;;;10324075;28;20026;-78
2023/10/29 08:19:20;;;;;;;5.88;2.22;;;;;;;;;;10320210;28;20023;-74
2023/10/29 08:24:20;;;;;;;5.68;1.77;;;;;;;;;;10285918;28;20049;-74
2023/10/29 08:29:21;;;;;;;9.07;4.05;;;;;;;;;;10322695;28;20034;-76
2023/10/29 08:34:21;;;;;;;10.32;4.55;;;;;;;;;;10323278;28;20080;-78
2023/10/29 08:39:22;;;;;;;13.13;4.50;;;;;;;;;;10324896;28;20033;-73
2023/10/29 08:44:22;;;;;;;10.52;4.30;;;;;;;;;;10323265;28;20036;-73
2023/10/29 08:49:22;;;;;;;9.18;4.22;;;;;;;;;;10323094;28;20030;-73
2023/10/29 08:54:23;;;;;;;12.95;4.05;;;;;;;;;;10322756;28;20569;-76
2023/10/29 08:59:33;;;;;;;10.88;3.90;;;;;;;;;;10323043;28;20046;-76
2023/10/29 09:04:37;;;;;;;12.63;4.10;;;;;;;;;;10306863;28;20058;-74
2023/10/29 09:09:38;;;;;;;9.68;4.05;;;;;;;;;;10322008;28;20030;-76
2023/10/29 09:14:38;;;;;;;9.38;3.53;;;;;;;;;;10322506;28;20014;-76
2023/10/29 09:19:38;;;;;;;6.20;2.63;;;;;;;;;;10321730;28;20028;-75
2023/10/29 09:24:38;;;;;;;6.45;2.78;;;;;;;;;;10319117;28;20030;-74
2023/10/29 09:29:40;;;;;;;8.25;2.15;;;;;;;;;;10321167;28;20022;-74
2023/10/29 09:34:40;;;;;;;9.10;2.15;;;;;;;;;;10319860;28;20030;-74
2023/10/29 09:39:41;;;;;;;6.43;1.75;;;;;;;;;;10319465;28;20026;-72
2023/10/29 09:44:44;;;;;;;6.38;1.95;;;;;;;;;;10320237;28;20117;-77
2023/10/29 09:49:44;;;;;;;5.65;1.20;;;;;;;;;;10304071;28;20122;-78
2023/10/29 09:54:46;;;;;;;7.60;1.30;;;;;;;;;;10318537;28;20485;-73
2023/10/29 09:59:47;;;;;;;3.55;1.42;;;;;;;;;;10320913;28;20497;-79
2023/10/29 10:04:47;;;;;;;4.13;1.10;;;;;;;;;;10318850;28;20019;-77
2023/10/29 10:09:54;;;;;;;4.78;1.45;;;;;;;;;;10320505;28;20014;-78
2023/10/29 10:15:03;;;;;;;6.10;1.50;;;;;;;;;;10288678;28;20030;-80
2023/10/29 10:20:05;;;;;;;3.15;0.93;;;;;;;;;;10279408;28;1134221;-75
2023/10/29 10:25:06;;;;;;;2.42;0.77;;;;;;;;;;10303831;28;20067;-75
2023/10/29 10:30:22;;;;;;;5.38;1.20;;;;;;;;;;10319077;28;20026;-77
2023/10/29 10:35:37;;;;;;;4.57;1.40;;;;;;;;;;10320851;28;20037;-77
2023/10/29 10:40:38;;;;;;;4.75;1.13;;;;;;;;;;10319968;28;20119;-75
2023/10/29 10:45:39;;;;;;;4.32;1.00;;;;;;;;;;10320419;28;20154;-73
2023/10/29 10:50:39;;;;;;;5.43;1.00;;;;;;;;;;10318903;28;20477;-74
2023/10/29 10:55:40;;;;;;;9.38;1.65;;;;;;;;;;10325470;28;20072;-74
2023/10/29 11:00:40;;;;;;;3.50;1.17;;;;;;;;;;10310911;28;20011;-73
2023/10/29 11:05:41;;;;;;;7.50;1.50;;;;;;;;;;10326451;28;20026;-75
2023/10/29 11:10:45;;;;;;;2.42;1.05;;;;;;;;;;10327283;28;20026;-73
2023/10/29 11:15:47;;;;;;;4.80;1.17;;;;;;;;;;10309547;28;20021;-74
2023/10/29 11:20:50;;;;;;;2.78;0.90;;;;;;;;;;10325624;28;20074;-73
2023/10/29 11:26:10;;;;;;;6.88;1.00;;;;;;;;;;10327024;28;20102;-72
2023/10/29 11:31:12;;;;;;;3.50;1.27;;;;;;;;;;10326780;28;20113;-73
2023/10/29 11:36:28;;;;;;;4.90;1.88;;;;;;;;;;10325609;28;20074;-73
2023/10/29 11:41:33;;;;;;;6.65;1.50;;;;;;;;;;10324716;28;20018;-72
2023/10/29 11:46:52;;;;;;;4.47;1.50;;;;;;;;;;10325842;28;20101;-72
2023/10/29 11:52:02;;;;;;;4.55;1.23;;;;;;;;;;10324892;28;20501;-73
2023/10/29 11:57:04;;;;;;;4.35;1.50;;;;;;;;;;10325326;28;20025;-78
2023/10/29 12:02:06;;;;;;;4.85;1.20;;;;;;;;;;10324973;28;20037;-75
2023/10/29 12:07:06;;;;;;;7.05;1.40;;;;;;;;;;10324665;28;20018;-74
2023/10/29 12:12:10;;;;;;;6.95;1.40;;;;;;;;;;10307840;28;20504;-74
2023/10/29 12:17:10;;;;;;;5.63;1.40;;;;;;;;;;10324240;28;20018;-73
2023/10/29 12:22:24;;;;;;;5.72;1.63;;;;;;;;;;10323962;28;20046;-78
2023/10/29 12:27:25;;;;;;;7.03;1.23;;;;;;;;;;10323877;28;20109;-77
2023/10/29 12:32:25;;;;;;;5.30;1.35;;;;;;;;;;10316406;28;20033;-72
2023/10/29 12:37:27;;;;;;;2.75;1.20;;;;;;;;;;10317737;28;20378;-77
2023/10/29 12:42:50;;;;;;;7.47;1.35;;;;;;;;;;10318495;28;20014;-78
2023/10/29 12:48:26;;;;;;;5.65;1.67;;;;;;;;;;10317428;28;20074;-78
2023/10/29 12:53:33;;;;;;;5.55;1.50;;;;;;;;;;10274203;28;20142;-76
2023/10/29 12:58:33;;;;;;;3.63;1.43;;;;;;;;;;10315185;28;20097;-77
2023/10/29 13:03:35;;;;;;;3.47;1.35;;;;;;;;;;10316445;28;20149;-75
2023/10/29 13:08:35;;;;;;;5.82;1.23;;;;;;;;;;10314913;28;20134;-77
2023/10/29 13:13:37;;;;;;;9.38;1.40;;;;;;;;;;10315574;28;20084;-75
2023/10/29 13:18:37;;;;;;;1.15;0.90;;;;;;;;;;10308586;28;20097;-77
2023/10/29 13:23:38;;;;;;;4.10;0.80;;;;;;;;;;10282025;28;20046;-74
2023/10/29 13:28:38;;;;;;;6.18;1.05;;;;;;;;;;10315316;28;20555;-72
2023/10/29 13:33:38;;;;;;;6.38;1.38;;;;;;;;;;10314706;28;20057;-73
2023/10/29 13:38:41;;;;;;;2.57;0.93;;;;;;;;;;10314551;28;20050;-73
2023/10/29 13:43:42;;;;;;;3.80;0.90;;;;;;;;;;10315065;28;20464;-73
2023/10/29 13:48:42;;;;;;;4.43;1.52;;;;;;;;;;10316512;28;20018;-78
2023/10/29 13:53:43;;;;;;;2.30;0.80;;;;;;;;;;10314371;28;20453;-73
2023/10/29 13:58:43;;;;;;;3.57;1.00;;;;;;;;;;10314094;28;20121;-74
2023/10/29 14:03:43;;;;;;;9.65;1.50;;;;;;;;;;10313586;28;20390;-78
2023/10/29 14:08:44;;;;;;;4.07;1.50;;;;;;;;;;10329339;28;20026;-73
2023/10/29 14:13:44;;;;;;;6.13;1.42;;;;;;;;;;10297314;28;20058;-73
2023/10/29 14:18:45;;;;;;;1.85;0.73;;;;;;;;;;10314653;28;20018;-78
2023/10/29 14:23:45;;;;;;;4.55;1.30;;;;;;;;;;10313472;28;20050;-75
2023/10/29 14:28:45;;;;;;;5.43;1.50;;;;;;;;;;10312239;28;20034;-74
2023/10/29 14:33:45;;;;;;;7.13;1.27;;;;;;;;;;10313317;28;20026;-74
2023/10/29 14:38:46;;;;;;;4.20;1.60;;;;;;;;;;10313147;28;20477;-73
2023/10/29 14:43:47;;;;;;;4.47;1.83;;;;;;;;;;10314527;28;20062;-73
2023/10/29 14:48:47;;;;;;;3.72;1.50;;;;;;;;;;10314556;28;20877;-73
2023/10/29 14:53:47;;;;;;;7.82;1.85;;;;;;;;;;10314584;28;20507;-79
2023/10/29 14:58:47;;;;;;;6.97;2.20;;;;;;;;;;10314407;28;20522;-74
2023/10/29 15:03:48;;;;;;;11.75;5.00;;;;;;;;;;10313343;28;20018;-76
2023/10/29 15:08:50;;;;;;;4.10;1.55;;;;;;;;;;10314138;28;20053;-77
2023/10/29 15:13:50;;;;;;;8.27;1.50;;;;;;;;;;10312854;28;20351;-74
2023/10/29 15:18:50;;;;;;;7.73;1.87;;;;;;;;;;10312501;28;20026;-78
2023/10/29 15:23:52;;;;;;;12.00;2.28;;;;;;;;;;10314807;28;20054;-78
2023/10/29 15:28:52;;;;;;;9.40;3.55;;;;;;;;;;10316026;28;20523;-73
2023/10/29 15:33:52;;;;;;;7.77;2.43;;;;;;;;;;10318303;28;20018;-73
2023/10/29 15:38:53;;;;;;;7.13;2.70;;;;;;;;;;10318001;28;20022;-73
2023/10/29 15:43:53;;;;;;;6.25;2.00;;;;;;;;;;10321888;28;20031;-73
2023/10/29 15:48:54;;;;;;;7.75;2.50;;;;;;;;;;10322482;28;20113;-74
2023/10/29 15:53:54;;;;;;;9.02;2.33;;;;;;;;;;10309652;28;20400;-76
2023/10/29 15:58:54;;;;;;;4.25;2.13;;;;;;;;;;10327072;28;20465;-72
2023/10/29 16:03:55;;;;;;;7.28;3.05;;;;;;;;;;10326136;28;20076;-76
2023/10/29 16:08:55;;;;;;;9.95;3.05;;;;;;;;;;10325042;28;20058;-78
2023/10/29 16:13:56;;;;;;;9.80;3.50;;;;;;;;;;10325282;28;20026;-72
2023/10/29 16:18:56;;;;;;;10.57;4.47;;;;;;;;;;10297211;28;20365;-80
2023/10/29 16:23:56;;;;;;;14.63;4.63;;;;;;;;;;10311502;28;20073;-74
2023/10/29 16:28:56;;;;;;;11.75;3.90;;;;;;;;;;10323480;28;20105;-77
2023/10/29 16:33:57;;;;;;;12.48;4.60;;;;;;;;;;10324507;28;20113;-74
2023/10/29 16:38:57;;;;;;;11.23;3.60;;;;;;;;;;10324418;28;20030;-77
2023/10/29 16:43:58;;;;;;;13.65;4.45;;;;;;;;;;10322847;28;20030;-74
2023/10/29 16:48:58;;;;;;;11.02;3.75;;;;;;;;;;10323707;28;20038;-77
2023/10/29 16:53:59;;;;;;;9.17;4.00;;;;;;;;;;10319106;28;20106;-74
2023/10/29 16:59:04;;;;;;;9.30;3.03;;;;;;;;;;10320591;28;20096;-74
2023/10/29 17:04:05;;;;;;;16.75;4.20;;;;;;;;;;10312967;28;20149;-73
2023/10/29 17:09:07;;;;;;;11.52;4.65;;;;;;;;;;10317830;28;20113;-76
2023/10/29 17:14:07;;;;;;;15.45;4.53;;;;;;;;;;10320430;28;20026;-77
2023/10/29 17:19:08;;;;;;;11.30;4.23;;;;;;;;;;10318963;28;20376;-73
2023/10/29 17:24:08;;;;;;;8.85;3.50;;;;;;;;;;10319102;28;20050;-73
2023/10/29 17:29:08;;;;;;;10.77;3.77;;;;;;;;;;10318999;28;20493;-74
2023/10/29 17:34:09;;;;;;;7.47;2.70;;;;;;;;;;10324054;28;20456;-79
2023/10/29 17:39:12;;;;;;;3.53;2.03;;;;;;;;;;10319021;28;20141;-74
2023/10/29 17:44:12;;;;;;;11.50;2.42;;;;;;;;;;10316204;28;20030;-77
2023/10/29 17:49:13;;;;;;;8.80;2.30;;;;;;;;;;10318557;28;20034;-74
2023/10/29 17:54:13;;;;;;;14.35;3.08;;;;;;;;;;10319639;28;20048;-74
2023/10/29 17:59:13;;;;;;;9.70;2.22;;;;;;;;;;10317713;28;20516;-75
2023/10/29 18:04:14;;;;;;;32.30;15.40;;;;;;;;;;10317163;28;20441;-75
2023/10/29 18:09:14;;;;;;;6.47;3.08;;;;;;;;;;10297254;28;20093;-74
2023/10/29 18:14:15;;;;;;;15.32;3.90;;;;;;;;;;10318308;28;20236;-77
2023/10/29 18:19:15;;;;;;;8.27;2.70;;;;;;;;;;10317613;28;20027;-73
2023/10/29 18:24:20;;;;;;;7.45;2.28;;;;;;;;;;10318187;28;20073;-78
2023/10/29 18:29:20;;;;;;;10.35;2.28;;;;;;;;;;10317523;28;20046;-74
2023/10/29 18:34:20;;;;;;;4.75;2.10;;;;;;;;;;10316038;28;20988;-72
2023/10/29 18:39:21;;;;;;;5.10;2.00;;;;;;;;;;10320837;28;20451;-73
2023/10/29 18:44:23;;;;;;;5.50;1.85;;;;;;;;;;10319883;28;20125;-72
2023/10/29 18:49:28;;;;;;;6.53;2.45;;;;;;;;;;10319516;28;20073;-77
2023/10/29 18:54:30;;;;;;;5.80;2.00;;;;;;;;;;10319198;28;20547;-79
2023/10/29 18:59:31;;;;;;;4.03;1.63;;;;;;;;;;10319122;28;20470;-74
2023/10/29 19:04:31;;;;;;;5.65;2.33;;;;;;;;;;10319121;28;20034;-75
2023/10/29 19:09:32;;;;;;;10.25;2.10;;;;;;;;;;10318787;28;20096;-74
2023/10/29 19:14:33;;;;;;;10.33;2.33;;;;;;;;;;10322433;28;20023;-74
2023/10/29 19:19:33;;;;;;;6.18;2.70;;;;;;;;;;10326334;28;20135;-76
2023/10/29 19:24:34;;;;;;;8.55;2.35;;;;;;;;;;10326127;28;20623;-75
2023/10/29 19:29:34;;;;;;;4.30;2.10;;;;;;;;;;10325918;28;20122;-73
2023/10/29 19:34:34;;;;;;;3.45;1.80;;;;;;;;;;10326111;28;20026;-74
2023/10/29 19:39:35;;;;;;;7.28;2.50;;;;;;;;;;10325607;28;20049;-74
2023/10/29 19:44:36;;;;;;;7.23;2.27;;;;;;;;;;10324737;28;20060;-73
2023/10/29 19:49:36;;;;;;;5.85;2.13;;;;;;;;;;10325747;28;20022;-75
2023/10/29 19:54:37;;;;;;;8.68;2.10;;;;;;;;;;10324703;28;20485;-75
2023/10/29 19:59:37;;;;;;;5.00;2.23;;;;;;;;;;10324976;28;20027;-76
2023/10/29 20:04:37;;;;;;;5.65;2.45;;;;;;;;;;10324513;28;20253;-73
2023/10/29 20:09:38;;;;;;;11.20;3.05;;;;;;;;;;10324583;28;20026;-80
2023/10/29 20:14:39;;;;;;;8.18;2.25;;;;;;;;;;10323755;28;20468;-74
2023/10/29 20:19:41;;;;;;;8.38;2.53;;;;;;;;;;10324587;28;20117;-73
2023/10/29 20:24:42;;;;;;;6.63;2.70;;;;;;;;;;10326003;28;20065;-76
2023/10/29 20:29:42;;;;;;;5.95;2.90;;;;;;;;;;10325750;28;20493;-75
2023/10/29 20:34:42;;;;;;;8.20;3.08;;;;;;;;;;10324216;28;20037;-74
2023/10/29 20:39:43;;;;;;;9.45;3.15;;;;;;;;;;10323459;28;20026;-75
2023/10/29 20:44:44;;;;;;;11.15;4.07;;;;;;;;;;10325190;28;20030;-75
2023/10/29 20:49:44;;;;;;;13.98;4.28;;;;;;;;;;10323303;28;20034;-73
2023/10/29 20:54:44;;;;;;;13.15;4.75;;;;;;;;;;10324317;28;20042;-74
2023/10/29 20:59:45;;;;;;;14.02;4.80;;;;;;;;;;10307120;28;20141;-81
2023/10/29 21:04:45;;;;;;;8.37;5.03;;;;;;;;;;10322327;28;20034;-74
2023/10/29 21:09:45;;;;;;;10.20;4.80;;;;;;;;;;10322747;28;20109;-75
2023/10/29 21:14:46;;;;;;;18.92;8.25;;;;;;;;;;10321795;28;20030;-75
2023/10/29 21:19:46;;;;;;;13.37;5.20;;;;;;;;;;10322947;28;20030;-74
2023/10/29 21:24:46;;;;;;;25.55;5.95;;;;;;;;;;10321904;28;20058;-78
2023/10/29 21:29:48;;;;;;;11.43;5.23;;;;;;;;;;10321569;28;20092;-75
2023/10/29 21:34:48;;;;;;;13.95;5.60;;;;;;;;;;10321400;28;20653;-73
2023/10/29 21:39:49;;;;;;;20.03;6.20;;;;;;;;;;10321214;28;20029;-75
2023/10/29 21:44:49;;;;;;;12.93;4.90;;;;;;;;;;10321068;28;20305;-75
2023/10/29 21:49:50;;;;;;;10.30;4.07;;;;;;;;;;10321078;28;20180;-74
2023/10/29 21:54:50;;;;;;;15.43;5.32;;;;;;;;;;10320781;28;20026;-75
2023/10/29 21:59:50;;;;;;;10.17;4.67;;;;;;;;;;10321851;28;20535;-73
2023/10/29 22:04:51;;;;;;;14.27;5.50;;;;;;;;;;10320834;28;20277;-74
2023/10/29 22:09:52;;;;;;;12.77;5.20;;;;;;;;;;10320756;28;20085;-75
2023/10/29 22:14:52;;;;;;;15.13;4.80;;;;;;;;;;10319958;28;20398;-74
2023/10/29 22:19:52;;;;;;;9.20;3.30;;;;;;;;;;10319679;28;20010;-74
2023/10/29 22:24:53;;;;;;;7.53;3.40;;;;;;;;;;10320718;28;20137;-73
2023/10/29 22:29:53;;;;;;;8.10;3.47;;;;;;;;;;10320493;28;20026;-78
2023/10/29 22:34:54;;;;;;;5.70;3.10;;;;;;;;;;10319642;28;20397;-73
2023/10/29 22:39:54;;;;;;;7.15;3.42;;;;;;;;;;10320085;28;20022;-76
2023/10/29 22:44:55;;;;;;;7.90;3.50;;;;;;;;;;10319952;28;20555;-77
2023/10/29 22:49:56;;;;;;;5.88;3.50;;;;;;;;;;10323102;28;20076;-73
2023/10/29 22:54:56;;;;;;;3.33;2.90;;;;;;;;;;10327957;28;20417;-74
2023/10/29 22:59:56;;;;;;;5.17;3.27;;;;;;;;;;10327140;28;20037;-75
2023/10/29 23:04:56;;;;;;;8.25;3.25;;;;;;;;;;10326718;28;20363;-74
2023/10/29 23:09:57;;;;;;;6.37;3.00;;;;;;;;;;10295407;28;20018;-78
2023/10/29 23:14:57;;;;;;;7.17;3.30;;;;;;;;;;10326588;28;20068;-74
2023/10/29 23:19:57;;;;;;;6.00;3.53;;;;;;;;;;10328061;28;20285;-74
2023/10/29 23:24:58;;;;;;;6.17;2.80;;;;;;;;;;10326607;28;20034;-72
2023/10/29 23:29:58;;;;;;;10.93;3.78;;;;;;;;;;10326016;28;20030;-75
2023/10/29 23:34:58;;;;;;;9.40;3.70;;;;;;;;;;10326411;28;20026;-73
2023/10/29 23:39:58;;;;;;;5.97;3.67;;;;;;;;;;10328885;28;20030;-76
2023/10/29 23:44:59;;;;;;;6.10;3.65;;;;;;;;;;10327079;28;20022;-75
2023/10/29 23:49:59;;;;;;;5.55;3.17;;;;;;;;;;10326131;28;20050;-74
2023/10/29 23:54:59;;;;;;;6.25;3.67;;;;;;;;;;10327299;28;20034;-76
